CAK3 weather

Delta Heritage Air Park
Delta, British Columbia, Canada

Public forecast

Using degrees Celsius for public forecast. Weather courtesy of forecast.io.

METAR (pilot weather report)

Closest report is Vancouver International Airport, 11.8 nm (21.9 km) NW. Retrieved 2019/04/19 15:22 UTC (58 minutes ago):

CYVR 191522Z 28006KT 15SM BKN003 BKN025 OVC032 10/09 A2997 RMK SF5SC2SC1 SLP150

TAF (pilot weather forecast)

Closest forecast is Vancouver International Airport, 11.8 nm (21.9 km) NW. Retrieved 2019/04/19 15:40 UTC (40 minutes ago):

TAF CYVR 191438Z 1915/2018 29008KT 4SM BR SCT002 BKN008 OVC012 TEMPO 1915/1917 2SM BR BKN002 OVC008 PROB30 1915/1917 1/2SM FG BKN001 OVC004 FM191700 29012KT P6SM FEW003 SCT008 BKN030 TEMPO 1917/1919 4SM BR SCT003 BKN008 BKN030 PROB30 1917/1919 2SM BR BKN003 FM191900 28012KT P6SM FEW008 SCT020 BKN040 TEMPO 1919/1922 FEW008 BKN020 BKN040 FM192200 28012KT P6SM FEW020 BKN050 FM200400 28008KT P6SM SCT020 BKN030 TEMPO 2004/2014 BKN020 BKN030 FM201400 30012KT P6SM SCT040 RMK NXT FCST BY 191800Z